createdAt,value
2018-02-16T00:00:11.696Z,0
2018-02-16T00:01:11.746Z,0
2018-02-16T00:02:11.991Z,0
2018-02-16T00:03:11.739Z,0
2018-02-16T00:04:11.758Z,0
2018-02-16T00:05:11.752Z,0
2018-02-16T00:06:11.266Z,0
2018-02-16T00:07:11.797Z,0
2018-02-16T00:08:11.812Z,0
2018-02-16T00:09:12.339Z,0
2018-02-16T00:10:12.105Z,0
2018-02-16T00:11:12.114Z,0
2018-02-16T00:12:11.370Z,0
2018-02-16T00:13:11.910Z,0
2018-02-16T00:14:11.906Z,0
2018-02-16T00:15:11.672Z,0
2018-02-16T00:16:11.742Z,0
2018-02-16T00:17:11.718Z,0
2018-02-16T00:18:11.975Z,0
2018-02-16T00:19:11.979Z,0
2018-02-16T00:20:12.545Z,0
2018-02-16T00:21:12.269Z,0
2018-02-16T00:22:12.532Z,0
2018-02-16T00:23:12.287Z,0
2018-02-16T00:24:12.075Z,0
2018-02-16T00:25:12.083Z,0
2018-02-16T00:26:11.832Z,0
2018-02-16T00:27:12.355Z,0
2018-02-16T00:28:12.370Z,0
2018-02-16T00:29:12.389Z,0
2018-02-16T00:30:12.158Z,0
2018-02-16T00:31:12.160Z,0
2018-02-16T00:32:12.686Z,0
2018-02-16T00:33:12.449Z,0
2018-02-16T00:34:12.226Z,0
2018-02-16T00:35:12.480Z,0
2018-02-16T00:36:12.257Z,0
2018-02-16T00:37:12.017Z,0
2018-02-16T00:38:12.535Z,0
2018-02-16T00:39:12.299Z,0
2018-02-16T00:40:12.314Z,0
2018-02-16T00:41:12.324Z,0
2018-02-16T00:42:12.366Z,0
2018-02-16T00:43:12.623Z,0
2018-02-16T00:44:12.634Z,0
2018-02-16T00:45:11.882Z,0
2018-02-16T00:46:12.904Z,0
2018-02-16T00:47:12.184Z,0
2018-02-16T00:48:12.179Z,0
2018-02-16T00:49:12.455Z,0
2018-02-16T00:50:12.722Z,0
2018-02-16T00:51:12.491Z,0
2018-02-16T00:52:12.995Z,0
2018-02-16T00:53:12.763Z,0
2018-02-16T00:54:12.268Z,0
2018-02-16T00:55:12.307Z,0
2018-02-16T00:56:12.305Z,0
2018-02-16T00:57:12.822Z,0
2018-02-16T00:58:12.583Z,0
2018-02-16T00:59:12.604Z,0
2018-02-16T01:00:12.625Z,0
2018-02-16T01:01:12.881Z,0
2018-02-16T01:02:12.397Z,0
2018-02-16T01:03:12.405Z,0
2018-02-16T01:04:12.680Z,0
2018-02-16T01:05:12.442Z,0
2018-02-16T01:06:12.457Z,0
2018-02-16T01:07:12.729Z,0
2018-02-16T01:08:12.488Z,0
2018-02-16T01:09:12.489Z,0
2018-02-16T01:10:13.017Z,0
2018-02-16T01:11:13.025Z,0
2018-02-16T01:12:13.299Z,0
2018-02-16T01:13:13.056Z,0
2018-02-16T01:14:12.565Z,0
2018-02-16T01:15:12.854Z,0
2018-02-16T01:16:12.849Z,0
2018-02-16T01:17:13.135Z,0
2018-02-16T01:18:12.655Z,0
2018-02-16T01:19:13.423Z,0
2018-02-16T01:20:13.424Z,0
2018-02-16T01:21:12.958Z,0
2018-02-16T01:22:12.977Z,0
2018-02-16T01:23:13.230Z,0
2018-02-16T01:24:12.991Z,0
2018-02-16T01:25:13.024Z,0
2018-02-16T01:26:13.021Z,0
2018-02-16T01:27:13.037Z,0
2018-02-16T01:28:12.800Z,0
2018-02-16T01:29:12.818Z,0
2018-02-16T01:30:12.832Z,0
2018-02-16T01:31:13.100Z,0
2018-02-16T01:32:13.371Z,0
2018-02-16T01:33:12.885Z,0
2018-02-16T01:34:13.398Z,0
2018-02-16T01:35:13.440Z,0
2018-02-16T01:36:13.435Z,0
2018-02-16T01:37:13.208Z,0
2018-02-16T01:38:13.468Z,0
2018-02-16T01:39:12.998Z,0
2018-02-16T01:40:13.255Z,0
2018-02-16T01:41:13.512Z,0
2018-02-16T01:42:13.267Z,0
2018-02-16T01:43:13.033Z,0
2018-02-16T01:44:13.302Z,0
2018-02-16T01:45:13.577Z,0
2018-02-16T01:46:13.337Z,0
2018-02-16T01:47:13.372Z,0
2018-02-16T01:48:13.370Z,0
2018-02-16T01:49:13.642Z,0
2018-02-16T01:50:13.911Z,0
2018-02-16T01:51:13.925Z,0
2018-02-16T01:52:13.468Z,0
2018-02-16T01:53:13.701Z,0
2018-02-16T01:54:13.722Z,0
2018-02-16T01:55:13.231Z,0
2018-02-16T01:56:13.493Z,0
2018-02-16T01:57:13.515Z,0
2018-02-16T01:58:13.561Z,0
2018-02-16T01:59:13.306Z,0
2018-02-16T02:00:13.823Z,0
2018-02-16T02:01:13.834Z,0
2018-02-16T02:02:13.850Z,0
2018-02-16T02:03:13.858Z,0
2018-02-16T02:04:13.620Z,0
2018-02-16T02:05:13.887Z,0
2018-02-16T02:06:13.902Z,0
2018-02-16T02:07:13.930Z,0
2018-02-16T02:08:13.679Z,0
2018-02-16T02:09:13.949Z,0
2018-02-16T02:10:13.457Z,0
2018-02-16T02:11:13.478Z,0
2018-02-16T02:12:13.498Z,0
2018-02-16T02:13:13.757Z,0
2018-02-16T02:14:13.772Z,0
2018-02-16T02:15:13.570Z,0
2018-02-16T02:16:13.540Z,0
2018-02-16T02:17:14.304Z,0
2018-02-16T02:18:13.823Z,0
2018-02-16T02:19:14.052Z,0
2018-02-16T02:20:13.862Z,0
2018-02-16T02:21:14.127Z,0
2018-02-16T02:22:13.891Z,0
2018-02-16T02:23:14.418Z,0
2018-02-16T02:24:13.917Z,0
2018-02-16T02:25:13.928Z,0
2018-02-16T02:26:14.208Z,0
2018-02-16T02:27:13.975Z,0
2018-02-16T02:28:14.225Z,0
2018-02-16T02:29:13.750Z,0
2018-02-16T02:30:14.006Z,0
2018-02-16T02:31:14.030Z,0
2018-02-16T02:32:14.557Z,0
2018-02-16T02:33:14.057Z,0
2018-02-16T02:34:14.072Z,0
2018-02-16T02:35:14.609Z,0
2018-02-16T02:36:13.851Z,0
2018-02-16T02:37:14.374Z,0
2018-02-16T02:38:14.142Z,0
2018-02-16T02:39:14.397Z,0
2018-02-16T02:40:14.162Z,0
2018-02-16T02:41:14.185Z,0
2018-02-16T02:42:14.444Z,0
2018-02-16T02:43:14.212Z,0
2018-02-16T02:44:14.473Z,0
2018-02-16T02:45:14.256Z,0
2018-02-16T02:46:14.510Z,0
2018-02-16T02:47:14.247Z,0
2018-02-16T02:48:13.758Z,0
2018-02-16T02:49:14.282Z,0
2018-02-16T02:50:14.298Z,0
2018-02-16T02:51:14.587Z,0
2018-02-16T02:52:14.785Z,0
2018-02-16T02:53:14.331Z,0
2018-02-16T02:54:14.598Z,0
2018-02-16T02:55:14.643Z,0
2018-02-16T02:56:14.641Z,0
2018-02-16T02:57:14.677Z,0
2018-02-16T02:58:14.420Z,0
2018-02-16T02:59:14.939Z,0
2018-02-16T03:00:14.719Z,0
2018-02-16T03:01:14.726Z,0
2018-02-16T03:02:14.470Z,0
2018-02-16T03:03:14.243Z,0
2018-02-16T03:04:14.787Z,0
2018-02-16T03:05:14.792Z,0
2018-02-16T03:06:14.780Z,0
2018-02-16T03:07:14.295Z,0
2018-02-16T03:08:14.815Z,0
2018-02-16T03:09:14.327Z,0
2018-02-16T03:10:14.585Z,0
2018-02-16T03:11:14.621Z,0
2018-02-16T03:12:14.376Z,0
2018-02-16T03:13:14.626Z,0
2018-02-16T03:14:14.904Z,0
2018-02-16T03:15:15.164Z,0
2018-02-16T03:16:14.439Z,0
2018-02-16T03:17:14.687Z,0
2018-02-16T03:18:14.706Z,0
2018-02-16T03:19:14.747Z,0
2018-02-16T03:20:14.495Z,0
2018-02-16T03:21:15.004Z,0
2018-02-16T03:22:14.766Z,0
2018-02-16T03:23:14.795Z,0
2018-02-16T03:24:14.540Z,0
2018-02-16T03:25:15.059Z,0
2018-02-16T03:26:15.335Z,0
2018-02-16T03:27:14.839Z,0
2018-02-16T03:28:14.597Z,0
2018-02-16T03:29:14.870Z,0
2018-02-16T03:30:15.142Z,0
2018-02-16T03:31:14.897Z,0
2018-02-16T03:32:14.917Z,0
2018-02-16T03:33:15.436Z,0
2018-02-16T03:34:14.922Z,0
2018-02-16T03:35:14.937Z,0
2018-02-16T03:36:15.209Z,0
2018-02-16T03:37:15.219Z,0
2018-02-16T03:38:14.989Z,0
2018-02-16T03:39:15.014Z,0
2018-02-16T03:40:15.038Z,0
2018-02-16T03:41:15.055Z,0
2018-02-16T03:42:14.547Z,0
2018-02-16T03:43:15.066Z,0
2018-02-16T03:44:15.095Z,0
2018-02-16T03:45:15.088Z,0
2018-02-16T03:46:15.362Z,0
2018-02-16T03:47:15.365Z,0
2018-02-16T03:48:14.881Z,0
2018-02-16T03:49:15.140Z,0
2018-02-16T03:50:15.174Z,0
2018-02-16T03:51:15.529Z,0
2018-02-16T03:52:15.444Z,0
2018-02-16T03:53:14.693Z,0
2018-02-16T03:54:15.230Z,0
2018-02-16T03:55:15.477Z,0
2018-02-16T03:56:15.499Z,0
2018-02-16T03:57:15.263Z,0
2018-02-16T03:58:15.283Z,0
2018-02-16T03:59:15.285Z,0
2018-02-16T04:00:15.301Z,0
2018-02-16T04:01:15.334Z,0
2018-02-16T04:02:15.321Z,0
2018-02-16T04:03:15.345Z,0
2018-02-16T04:04:15.609Z,0
2018-02-16T04:05:16.084Z,0
2018-02-16T04:06:15.628Z,0
2018-02-16T04:07:15.657Z,0
2018-02-16T04:08:15.668Z,0
2018-02-16T04:09:14.920Z,0
2018-02-16T04:10:15.692Z,0
2018-02-16T04:11:15.451Z,0
2018-02-16T04:12:15.977Z,0
2018-02-16T04:13:15.236Z,0
2018-02-16T04:14:15.749Z,0
2018-02-16T04:15:15.758Z,0
2018-02-16T04:16:15.776Z,0
2018-02-16T04:17:15.324Z,0
2018-02-16T04:18:15.301Z,0
2018-02-16T04:19:15.822Z,0
2018-02-16T04:20:15.834Z,0
2018-02-16T04:21:15.849Z,0
2018-02-16T04:22:15.356Z,0
2018-02-16T04:23:15.879Z,0
2018-02-16T04:24:15.400Z,0
2018-02-16T04:25:16.162Z,0
2018-02-16T04:26:16.172Z,0
2018-02-16T04:27:15.703Z,0
2018-02-16T04:28:15.452Z,0
2018-02-16T04:29:16.219Z,0
2018-02-16T04:30:15.721Z,0
2018-02-16T04:31:15.983Z,0
2018-02-16T04:32:16.265Z,0
2018-02-16T04:33:16.274Z,0
2018-02-16T04:34:15.782Z,0
2018-02-16T04:35:15.541Z,0
2018-02-16T04:36:15.806Z,0
2018-02-16T04:37:15.820Z,0
2018-02-16T04:38:15.842Z,0
2018-02-16T04:39:16.100Z,0
2018-02-16T04:40:15.863Z,0
2018-02-16T04:41:15.885Z,0
2018-02-16T04:42:15.894Z,0
2018-02-16T04:43:15.656Z,0
2018-02-16T04:44:15.928Z,0
2018-02-16T04:45:16.220Z,0
2018-02-16T04:46:15.953Z,0
2018-02-16T04:47:15.968Z,0
2018-02-16T04:48:16.237Z,0
2018-02-16T04:49:15.991Z,0
2018-02-16T04:50:15.762Z,0
2018-02-16T04:51:16.298Z,0
2018-02-16T04:52:16.042Z,0
2018-02-16T04:53:16.070Z,0
2018-02-16T04:54:16.323Z,0
2018-02-16T04:55:16.344Z,0
2018-02-16T04:56:16.618Z,0
2018-02-16T04:57:15.866Z,0
2018-02-16T04:58:16.134Z,0
2018-02-16T04:59:16.656Z,0
2018-02-16T05:00:16.157Z,0
2018-02-16T05:01:16.438Z,0
2018-02-16T05:02:16.695Z,0
2018-02-16T05:03:16.451Z,0
2018-02-16T05:04:16.467Z,0
2018-02-16T05:05:16.743Z,0
2018-02-16T05:06:15.987Z,0
2018-02-16T05:07:16.270Z,0
2018-02-16T05:08:16.269Z,0
2018-02-16T05:09:16.302Z,0
2018-02-16T05:10:16.551Z,0
2018-02-16T05:11:16.568Z,0
2018-02-16T05:12:16.841Z,0
2018-02-16T05:13:16.093Z,0
2018-02-16T05:14:16.361Z,0
2018-02-16T05:15:16.379Z,0
2018-02-16T05:16:16.392Z,0
2018-02-16T05:17:16.404Z,0
2018-02-16T05:18:16.164Z,0
2018-02-16T05:19:16.429Z,0
2018-02-16T05:20:16.976Z,0
2018-02-16T05:21:16.709Z,0
2018-02-16T05:22:16.497Z,0
2018-02-16T05:23:16.484Z,0
2018-02-16T05:24:16.500Z,0
2018-02-16T05:25:16.775Z,0
2018-02-16T05:26:16.788Z,0
2018-02-16T05:27:16.544Z,0
2018-02-16T05:28:16.567Z,0
2018-02-16T05:29:16.830Z,0
2018-02-16T05:30:16.606Z,0
2018-02-16T05:31:16.601Z,0
2018-02-16T05:32:16.617Z,0
2018-02-16T05:33:16.633Z,0
2018-02-16T05:34:16.656Z,0
2018-02-16T05:35:16.909Z,0
2018-02-16T05:36:16.690Z,0
2018-02-16T05:37:16.435Z,0
2018-02-16T05:38:17.207Z,0
2018-02-16T05:39:16.465Z,0
2018-02-16T05:40:16.974Z,0
2018-02-16T05:41:17.249Z,0
2018-02-16T05:42:17.281Z,0
2018-02-16T05:43:16.513Z,0
2018-02-16T05:44:16.544Z,0
2018-02-16T05:45:17.058Z,0
2018-02-16T05:46:16.810Z,0
2018-02-16T05:47:16.574Z,0
2018-02-16T05:48:16.843Z,0
2018-02-16T05:49:16.860Z,0
2018-02-16T05:50:16.621Z,0
2018-02-16T05:51:16.905Z,0
2018-02-16T05:52:16.901Z,0
2018-02-16T05:53:17.413Z,0
2018-02-16T05:54:16.924Z,0
2018-02-16T05:55:16.960Z,0
2018-02-16T05:56:17.217Z,0
2018-02-16T05:57:17.210Z,0
2018-02-16T05:58:17.264Z,0
2018-02-16T05:59:16.481Z,0
2018-02-16T06:00:17.252Z,0
2018-02-16T06:01:17.013Z,0
2018-02-16T06:02:17.284Z,0
2018-02-16T06:03:17.041Z,0
2018-02-16T06:04:17.064Z,0
2018-02-16T06:05:17.632Z,0
2018-02-16T06:06:16.851Z,0
2018-02-16T06:07:17.352Z,0
2018-02-16T06:08:17.149Z,0
2018-02-16T06:09:17.146Z,0
2018-02-16T06:10:16.643Z,0
2018-02-16T06:11:17.168Z,0
2018-02-16T06:12:17.195Z,0
2018-02-16T06:13:17.448Z,0
2018-02-16T06:14:17.711Z,0
2018-02-16T06:15:17.478Z,0
2018-02-16T06:16:17.502Z,0
2018-02-16T06:17:17.018Z,0
2018-02-16T06:18:17.464Z,0
2018-02-16T06:19:17.282Z,0
2018-02-16T06:20:17.295Z,0
2018-02-16T06:21:17.569Z,0
2018-02-16T06:22:17.332Z,0
2018-02-16T06:23:17.600Z,0
2018-02-16T06:24:17.372Z,0
2018-02-16T06:25:17.374Z,0
2018-02-16T06:26:17.634Z,0
2018-02-16T06:27:17.657Z,0
2018-02-16T06:28:17.205Z,5
2018-02-16T06:29:17.170Z,5
2018-02-16T06:30:16.936Z,5
2018-02-16T06:31:17.456Z,5
2018-02-16T06:32:17.724Z,5
2018-02-16T06:33:17.733Z,5
2018-02-16T06:34:17.519Z,5
2018-02-16T06:35:17.517Z,10
2018-02-16T06:36:17.778Z,10
2018-02-16T06:37:17.807Z,10
2018-02-16T06:38:18.063Z,10
2018-02-16T06:39:17.836Z,10
2018-02-16T06:40:17.840Z,10
2018-02-16T06:41:17.864Z,10
2018-02-16T06:42:17.631Z,10
2018-02-16T06:43:17.634Z,10
2018-02-16T06:44:17.654Z,10
2018-02-16T06:45:17.920Z,10
2018-02-16T06:46:17.930Z,10
2018-02-16T06:47:17.698Z,10
2018-02-16T06:48:17.958Z,10
2018-02-16T06:49:17.998Z,10
2018-02-16T06:50:17.741Z,10
2018-02-16T06:51:18.307Z,10
2018-02-16T06:52:18.020Z,10
2018-02-16T06:53:17.782Z,10
2018-02-16T06:54:18.059Z,10
2018-02-16T06:55:18.062Z,10
2018-02-16T06:56:18.077Z,10
2018-02-16T06:57:17.909Z,10
2018-02-16T06:58:17.854Z,10
2018-02-16T06:59:17.876Z,10
2018-02-16T07:00:17.887Z,10
2018-02-16T07:01:18.173Z,10
2018-02-16T07:02:18.162Z,10
2018-02-16T07:03:18.194Z,15
2018-02-16T07:04:17.938Z,15
2018-02-16T07:05:18.212Z,15
2018-02-16T07:06:17.967Z,10
2018-02-16T07:07:17.736Z,15
2018-02-16T07:08:17.496Z,15
2018-02-16T07:09:18.288Z,15
2018-02-16T07:10:17.774Z,20
2018-02-16T07:11:17.541Z,20
2018-02-16T07:12:18.310Z,15
2018-02-16T07:13:17.845Z,15
2018-02-16T07:14:18.349Z,15
2018-02-16T07:15:18.111Z,15
2018-02-16T07:16:17.857Z,10
2018-02-16T07:17:18.157Z,10
2018-02-16T07:18:18.151Z,10
2018-02-16T07:19:18.402Z,10
2018-02-16T07:20:18.180Z,10
2018-02-16T07:21:17.933Z,10
2018-02-16T07:22:18.456Z,10
2018-02-16T07:23:17.956Z,15
2018-02-16T07:24:18.243Z,15
2018-02-16T07:25:18.496Z,15
2018-02-16T07:26:18.774Z,20
2018-02-16T07:27:18.271Z,25
2018-02-16T07:28:18.545Z,25
2018-02-16T07:29:18.050Z,30
2018-02-16T07:30:18.363Z,35
2018-02-16T07:31:18.849Z,35
2018-02-16T07:32:18.354Z,35
2018-02-16T07:33:18.366Z,30
2018-02-16T07:34:18.373Z,25
2018-02-16T07:35:18.383Z,20
2018-02-16T07:36:18.397Z,20
2018-02-16T07:37:18.673Z,25
2018-02-16T07:38:18.457Z,25
2018-02-16T07:39:18.196Z,25
2018-02-16T07:40:18.473Z,30
2018-02-16T07:41:18.726Z,30
2018-02-16T07:42:18.751Z,30
2018-02-16T07:43:18.509Z,35
2018-02-16T07:44:18.778Z,40
2018-02-16T07:45:18.287Z,40
2018-02-16T07:46:18.552Z,45
2018-02-16T07:47:18.844Z,40
2018-02-16T07:48:18.582Z,40
2018-02-16T07:49:19.111Z,35
2018-02-16T07:50:18.878Z,35
2018-02-16T07:51:18.881Z,40
2018-02-16T07:52:19.153Z,40
2018-02-16T07:53:18.401Z,45
2018-02-16T07:54:18.675Z,45
2018-02-16T07:55:18.950Z,40
2018-02-16T07:56:18.700Z,40
2018-02-16T07:57:18.722Z,35
2018-02-16T07:58:18.733Z,35
2018-02-16T07:59:18.748Z,35
2018-02-16T08:00:18.758Z,35
2018-02-16T08:01:19.027Z,30
2018-02-16T08:02:19.304Z,30
2018-02-16T08:03:18.805Z,30
2018-02-16T08:04:18.576Z,30
2018-02-16T08:05:19.084Z,35
2018-02-16T08:06:19.110Z,40
2018-02-16T08:07:19.373Z,40
2018-02-16T08:08:19.383Z,40
2018-02-16T08:09:18.893Z,40
2018-02-16T08:10:18.659Z,40
2018-02-16T08:11:19.189Z,40
2018-02-16T08:12:18.937Z,40
2018-02-16T08:13:18.980Z,45
2018-02-16T08:14:18.969Z,45
2018-02-16T08:15:19.235Z,45
2018-02-16T08:16:19.251Z,50
2018-02-16T08:17:19.526Z,60
2018-02-16T08:18:19.028Z,60
2018-02-16T08:19:19.049Z,50
2018-02-16T08:20:19.312Z,45
2018-02-16T08:21:19.331Z,45
2018-02-16T08:22:19.597Z,50
2018-02-16T08:23:19.625Z,50
2018-02-16T08:24:19.364Z,55
2018-02-16T08:25:34.041Z,55
2018-02-16T08:26:19.145Z,60
2018-02-16T08:27:19.172Z,65
2018-02-16T08:28:18.927Z,70
2018-02-16T08:29:19.194Z,75
2018-02-16T08:30:19.224Z,80
2018-02-16T08:31:19.512Z,75
2018-02-16T08:32:19.489Z,80
2018-02-16T08:33:19.505Z,80
2018-02-16T08:34:19.523Z,75
2018-02-16T08:35:19.040Z,75
2018-02-16T08:36:19.557Z,70
2018-02-16T08:37:19.060Z,65
2018-02-16T08:38:19.362Z,70
2018-02-16T08:39:19.093Z,70
2018-02-16T08:40:19.358Z,70
2018-02-16T08:41:19.368Z,70
2018-02-16T08:42:19.680Z,75
2018-02-16T08:43:19.407Z,80
2018-02-16T08:44:19.416Z,80
2018-02-16T08:45:19.433Z,80
2018-02-16T08:46:19.449Z,80
2018-02-16T08:47:19.965Z,85
2018-02-16T08:48:19.483Z,90
2018-02-16T08:49:20.008Z,90
2018-02-16T08:50:19.760Z,90
2018-02-16T08:51:19.771Z,85
2018-02-16T08:52:19.542Z,85
2018-02-16T08:53:19.811Z,85
2018-02-16T08:54:19.310Z,90
2018-02-16T08:55:19.338Z,90
2018-02-16T08:56:19.853Z,85
2018-02-16T08:57:19.865Z,80
2018-02-16T08:58:19.645Z,75
2018-02-16T08:59:19.890Z,70
2018-02-16T09:00:19.657Z,75
2018-02-16T09:01:19.669Z,80
2018-02-16T09:02:19.442Z,85
2018-02-16T09:03:19.698Z,85
2018-02-16T09:04:19.715Z,85
2018-02-16T09:05:19.973Z,85
2018-02-16T09:06:19.991Z,80
2018-02-16T09:07:19.754Z,80
2018-02-16T09:08:19.775Z,80
2018-02-16T09:09:19.789Z,80
2018-02-16T09:10:19.564Z,80
2018-02-16T09:11:20.076Z,80
2018-02-16T09:12:19.835Z,85
2018-02-16T09:13:19.620Z,85
2018-02-16T09:14:20.384Z,90
2018-02-16T09:15:19.880Z,95
2018-02-16T09:16:20.153Z,95
2018-02-16T09:17:19.932Z,90
2018-02-16T09:18:19.691Z,85
2018-02-16T09:19:20.194Z,85
2018-02-16T09:20:20.262Z,85
2018-02-16T09:21:19.717Z,90
2018-02-16T09:22:20.240Z,100
2018-02-16T09:23:20.250Z,105
2018-02-16T09:24:20.017Z,105
2018-02-16T09:25:20.043Z,105
2018-02-16T09:26:20.297Z,105
2018-02-16T09:27:20.091Z,100
2018-02-16T09:28:20.154Z,95
2018-02-16T09:29:20.162Z,95
2018-02-16T09:30:20.362Z,85
2018-02-16T09:31:20.122Z,90
2018-02-16T09:32:19.878Z,85
2018-02-16T09:33:20.402Z,85
2018-02-16T09:34:20.162Z,80
2018-02-16T09:35:20.191Z,80
2018-02-16T09:36:20.704Z,80
2018-02-16T09:37:20.205Z,80
2018-02-16T09:38:20.222Z,80
2018-02-16T09:39:20.240Z,80
2018-02-16T09:40:19.996Z,80
2018-02-16T09:41:20.519Z,85
2018-02-16T09:42:20.283Z,95
2018-02-16T09:43:20.059Z,110
2018-02-16T09:44:20.566Z,120
2018-02-16T09:45:20.072Z,125
2018-02-16T09:46:20.437Z,125
2018-02-16T09:47:20.608Z,115
2018-02-16T09:48:20.368Z,105
2018-02-16T09:49:20.639Z,100
2018-02-16T09:50:20.649Z,95
2018-02-16T09:51:20.426Z,95
2018-02-16T09:52:20.426Z,95
2018-02-16T09:53:20.440Z,100
2018-02-16T09:54:20.212Z,100
2018-02-16T09:55:20.478Z,105
2018-02-16T09:56:20.750Z,110
2018-02-16T09:57:20.522Z,110
2018-02-16T09:58:35.207Z,105
2018-02-16T09:59:20.530Z,105
2018-02-16T10:00:20.806Z,105
2018-02-16T10:01:21.086Z,105
2018-02-16T10:02:20.580Z,110
2018-02-16T10:03:20.604Z,120
2018-02-16T10:04:20.612Z,135
2018-02-16T10:05:20.887Z,150
2018-02-16T10:06:20.645Z,155
2018-02-16T10:07:20.961Z,150
2018-02-16T10:08:20.921Z,130
2018-02-16T10:09:20.460Z,115
2018-02-16T10:10:20.701Z,110
2018-02-16T10:11:20.963Z,105
2018-02-16T10:12:20.479Z,105
2018-02-16T10:13:20.773Z,100
2018-02-16T10:14:21.279Z,95
2018-02-16T10:15:21.060Z,90
2018-02-16T10:16:20.819Z,95
2018-02-16T10:17:21.324Z,100
2018-02-16T10:18:21.091Z,105
2018-02-16T10:19:20.964Z,105
2018-02-16T10:20:21.395Z,110
2018-02-16T10:21:20.634Z,120
2018-02-16T10:22:21.142Z,135
2018-02-16T10:23:21.153Z,140
2018-02-16T10:24:21.170Z,140
2018-02-16T10:25:21.191Z,145
2018-02-16T10:26:20.954Z,155
2018-02-16T10:27:21.227Z,155
2018-02-16T10:28:21.491Z,160
2018-02-16T10:29:21.250Z,170
2018-02-16T10:30:21.264Z,180
2018-02-16T10:31:21.277Z,185
2018-02-16T10:32:20.806Z,190
2018-02-16T10:33:21.060Z,180
2018-02-16T10:34:21.172Z,155
2018-02-16T10:35:21.395Z,150
2018-02-16T10:36:21.188Z,145
2018-02-16T10:37:21.630Z,150
2018-02-16T10:38:21.144Z,145
2018-02-16T10:39:21.657Z,135
2018-02-16T10:40:20.910Z,130
2018-02-16T10:41:21.441Z,125
2018-02-16T10:42:21.451Z,130
2018-02-16T10:43:21.218Z,120
2018-02-16T10:44:20.975Z,120
2018-02-16T10:45:21.248Z,120
2018-02-16T10:46:21.013Z,115
2018-02-16T10:47:21.280Z,110
2018-02-16T10:48:21.789Z,110
2018-02-16T10:49:21.555Z,115
2018-02-16T10:50:21.573Z,125
2018-02-16T10:51:21.325Z,130
2018-02-16T10:52:21.103Z,130
2018-02-16T10:53:21.610Z,135
2018-02-16T10:54:21.633Z,140
2018-02-16T10:55:21.407Z,150
2018-02-16T10:56:21.683Z,160
2018-02-16T10:57:21.431Z,155
2018-02-16T10:58:21.697Z,155
2018-02-16T10:59:21.474Z,160
2018-02-16T11:00:21.990Z,160
2018-02-16T11:01:21.244Z,160
2018-02-16T11:02:21.837Z,160
2018-02-16T11:03:21.774Z,155
2018-02-16T11:04:21.536Z,160
2018-02-16T11:05:21.546Z,160
2018-02-16T11:06:21.306Z,165
2018-02-16T11:07:22.078Z,175
2018-02-16T11:08:21.591Z,180
2018-02-16T11:09:22.115Z,175
2018-02-16T11:10:21.625Z,155
2018-02-16T11:11:21.403Z,145
2018-02-16T11:12:21.664Z,125
2018-02-16T11:13:21.674Z,110
2018-02-16T11:14:21.707Z,100
2018-02-16T11:15:21.472Z,95
2018-02-16T11:16:22.233Z,90
2018-02-16T11:17:21.489Z,95
2018-02-16T11:18:22.294Z,100
2018-02-16T11:19:21.775Z,110
2018-02-16T11:20:22.098Z,115
2018-02-16T11:21:21.810Z,125
2018-02-16T11:22:22.084Z,150
2018-02-16T11:23:21.588Z,170
2018-02-16T11:24:22.104Z,195
2018-02-16T11:25:21.624Z,200
2018-02-16T11:26:21.894Z,190
2018-02-16T11:27:22.154Z,165
2018-02-16T11:28:21.922Z,140
2018-02-16T11:29:22.191Z,120
2018-02-16T11:30:22.468Z,100
2018-02-16T11:31:22.470Z,85
2018-02-16T11:32:22.236Z,80
2018-02-16T11:33:22.269Z,70
2018-02-16T11:34:22.017Z,75
2018-02-16T11:35:22.036Z,75
2018-02-16T11:36:22.058Z,75
2018-02-16T11:37:21.812Z,80
2018-02-16T11:38:22.334Z,85
2018-02-16T11:39:22.343Z,85
2018-02-16T11:40:23.194Z,85
2018-02-16T11:41:22.635Z,90
2018-02-16T11:42:22.645Z,90
2018-02-16T11:43:22.432Z,100
2018-02-16T11:44:22.190Z,105
2018-02-16T11:45:22.451Z,110
2018-02-16T11:46:22.453Z,120
2018-02-16T11:47:21.973Z,140
2018-02-16T11:48:22.492Z,150
2018-02-16T11:49:22.501Z,160
2018-02-16T11:50:22.527Z,155
2018-02-16T11:51:22.289Z,150
2018-02-16T11:52:22.060Z,140
2018-02-16T11:53:22.573Z,135
2018-02-16T11:54:22.074Z,130
2018-02-16T11:55:22.619Z,130
2018-02-16T11:56:22.616Z,130
2018-02-16T11:57:22.887Z,130
2018-02-16T11:58:22.158Z,130
2018-02-16T11:59:22.660Z,130
2018-02-16T12:00:22.419Z,130
2018-02-16T12:01:22.700Z,120
2018-02-16T12:02:22.714Z,115
2018-02-16T12:03:22.225Z,110
2018-02-16T12:04:22.241Z,105
2018-02-16T12:05:22.775Z,105
2018-02-16T12:06:22.285Z,100
2018-02-16T12:07:22.786Z,95
2018-02-16T12:08:22.552Z,95
2018-02-16T12:09:22.586Z,85
2018-02-16T12:10:22.912Z,85
2018-02-16T12:11:22.851Z,80
2018-02-16T12:12:22.616Z,80
2018-02-16T12:13:22.377Z,80
2018-02-16T12:14:22.893Z,85
2018-02-16T12:15:22.946Z,85
2018-02-16T12:16:22.424Z,85
2018-02-16T12:17:22.711Z,85
2018-02-16T12:18:23.214Z,90
2018-02-16T12:19:22.723Z,85
2018-02-16T12:20:22.730Z,80
2018-02-16T12:21:22.508Z,80
2018-02-16T12:22:23.020Z,80
2018-02-16T12:23:22.784Z,75
2018-02-16T12:24:22.801Z,75
2018-02-16T12:25:23.083Z,75
2018-02-16T12:26:23.089Z,75
2018-02-16T12:27:22.593Z,80
2018-02-16T12:28:23.120Z,80
2018-02-16T12:29:22.882Z,75
2018-02-16T12:30:22.895Z,70
2018-02-16T12:31:23.178Z,70
2018-02-16T12:32:22.415Z,75
2018-02-16T12:33:23.445Z,75
2018-02-16T12:34:22.958Z,80
2018-02-16T12:35:23.250Z,85
2018-02-16T12:36:23.240Z,90
2018-02-16T12:37:23.009Z,100
2018-02-16T12:38:23.514Z,110
2018-02-16T12:39:23.046Z,125
2018-02-16T12:40:23.309Z,150
2018-02-16T12:41:22.807Z,170
2018-02-16T12:42:22.574Z,180
2018-02-16T12:43:23.603Z,190
2018-02-16T12:44:23.110Z,200
2018-02-16T12:45:23.129Z,210
2018-02-16T12:46:22.891Z,220
2018-02-16T12:47:23.181Z,210
2018-02-16T12:48:23.426Z,200
2018-02-16T12:49:23.193Z,175
2018-02-16T12:50:23.217Z,160
2018-02-16T12:51:23.320Z,160
2018-02-16T12:52:23.492Z,170
2018-02-16T12:53:23.002Z,155
2018-02-16T12:54:23.273Z,155
2018-02-16T12:55:23.041Z,165
2018-02-16T12:56:23.052Z,150
2018-02-16T12:57:23.604Z,135
2018-02-16T12:58:23.585Z,125
2018-02-16T12:59:23.349Z,115
2018-02-16T13:00:23.611Z,100
2018-02-16T13:01:24.014Z,95
2018-02-16T13:02:23.394Z,80
2018-02-16T13:03:23.413Z,75
2018-02-16T13:04:23.965Z,75
2018-02-16T13:05:23.438Z,80
2018-02-16T13:06:23.207Z,80
2018-02-16T13:07:23.732Z,80
2018-02-16T13:08:23.498Z,80
2018-02-16T13:09:23.530Z,80
2018-02-16T13:10:23.528Z,70
2018-02-16T13:11:23.545Z,75
2018-02-16T13:12:23.563Z,75
2018-02-16T13:13:23.594Z,85
2018-02-16T13:14:23.594Z,85
2018-02-16T13:15:23.608Z,85
2018-02-16T13:16:23.889Z,80
2018-02-16T13:17:23.644Z,80
2018-02-16T13:18:23.154Z,80
2018-02-16T13:19:23.930Z,80
2018-02-16T13:20:23.436Z,80
2018-02-16T13:21:23.963Z,80
2018-02-16T13:22:23.974Z,80
2018-02-16T13:23:23.994Z,75
2018-02-16T13:24:23.748Z,75
2018-02-16T13:25:23.771Z,70
2018-02-16T13:26:24.316Z,70
2018-02-16T13:27:23.549Z,70
2018-02-16T13:28:23.818Z,65
2018-02-16T13:29:24.097Z,65
2018-02-16T13:30:23.602Z,65
2018-02-16T13:31:23.868Z,60
2018-02-16T13:32:24.392Z,60
2018-02-16T13:33:23.903Z,60
2018-02-16T13:34:23.943Z,55
2018-02-16T13:35:24.447Z,55
2018-02-16T13:36:24.200Z,55
2018-02-16T13:37:24.221Z,55
2018-02-16T13:38:23.724Z,55
2018-02-16T13:39:23.774Z,55
2018-02-16T13:40:24.266Z,55
2018-02-16T13:41:23.795Z,50
2018-02-16T13:42:23.814Z,50
2018-02-16T13:43:24.063Z,45
2018-02-16T13:44:24.582Z,50
2018-02-16T13:45:24.371Z,50
2018-02-16T13:46:24.372Z,50
2018-02-16T13:47:24.125Z,50
2018-02-16T13:48:23.884Z,45
2018-02-16T13:49:24.678Z,45
2018-02-16T13:50:23.666Z,45
2018-02-16T13:51:24.698Z,45
2018-02-16T13:52:23.957Z,40
2018-02-16T13:53:24.493Z,40
2018-02-16T13:54:24.235Z,40
2018-02-16T13:55:24.255Z,40
2018-02-16T13:56:24.010Z,40
2018-02-16T13:57:24.281Z,40
2018-02-16T13:58:24.311Z,40
2018-02-16T13:59:24.312Z,35
2018-02-16T14:00:24.588Z,35
2018-02-16T14:01:24.354Z,35
2018-02-16T14:02:24.702Z,35
2018-02-16T14:03:24.635Z,35
2018-02-16T14:04:24.656Z,30
2018-02-16T14:05:24.415Z,30
2018-02-16T14:06:24.423Z,35
2018-02-16T14:07:23.949Z,35
2018-02-16T14:08:24.218Z,35
2018-02-16T14:09:24.724Z,40
2018-02-16T14:10:24.234Z,40
2018-02-16T14:11:25.007Z,45
2018-02-16T14:12:25.068Z,45
2018-02-16T14:13:24.025Z,45
2018-02-16T14:14:24.043Z,45
2018-02-16T14:15:25.075Z,45
2018-02-16T14:16:24.578Z,45
2018-02-16T14:17:24.339Z,50
2018-02-16T14:18:24.618Z,50
2018-02-16T14:19:24.877Z,55
2018-02-16T14:20:24.891Z,60
2018-02-16T14:21:24.425Z,65
2018-02-16T14:22:24.921Z,70
2018-02-16T14:23:25.222Z,75
2018-02-16T14:24:24.957Z,75